GBMKR EGCM-EGCM
Flight info
| Callsign | GBMKR |
|---|---|
| Flight time | 0h 3m |
| Altitude | 3000 |
| Route | DCT EGCM |
| Aircraft | P28A/L-SDE2E3FGHIRWXY/S |
Departure
| Time | 2026-05-05 14:29 |
|---|---|
| Airport | Leeds East Airport (EGCM) |
Arrival
| Time | 2026-05-05 14:32 |
|---|---|
| Airport | Leeds East Airport (EGCM) |
| Time | Latitude | Longitude | Altitude | Speed | Heading |
|---|---|---|---|---|---|
| 2026-05-05 14:22 | 53.83418 | -1.20206 | 36 ft | 0 kts | 347° |
| 2026-05-05 14:23 | 53.83428 | -1.20210 | 36 ft | 0 kts | 348° |
| 2026-05-05 14:24 | 53.83429 | -1.20211 | 36 ft | 0 kts | 348° |
| 2026-05-05 14:24 | 53.83437 | -1.20222 | 36 ft | 1 kts | 275° |
| 2026-05-05 14:25 | 53.83413 | -1.20336 | 37 ft | 17 kts | 239° |
| 2026-05-05 14:25 | 53.83309 | -1.20535 | 37 ft | 27 kts | 210° |
| 2026-05-05 14:25 | 53.83137 | -1.20659 | 37 ft | 14 kts | 183° |
| 2026-05-05 14:25 | 53.83125 | -1.20659 | 37 ft | 0 kts | 184° |
| 2026-05-05 14:27 | 53.83121 | -1.20660 | 37 ft | 0 kts | 183° |
| 2026-05-05 14:27 | 53.83086 | -1.20663 | 37 ft | 16 kts | 185° |
| 2026-05-05 14:27 | 53.83032 | -1.20539 | 36 ft | 20 kts | 53° |
| 2026-05-05 14:27 | 53.83079 | -1.20428 | 37 ft | 0 kts | 53° |
| 2026-05-05 14:28 | 53.83133 | -1.20300 | 38 ft | 39 kts | 54° |
| 2026-05-05 14:28 | 53.83392 | -1.19706 | 37 ft | 83 kts | 57° |
| 2026-05-05 14:28 | 53.83748 | -1.18835 | 187 ft | 93 kts | 51° |
| 2026-05-05 14:28 | 53.84134 | -1.17940 | 379 ft | 97 kts | 47° |
| 2026-05-05 14:29 | 53.84558 | -1.17074 | 518 ft | 93 kts | 44° |
| 2026-05-05 14:29 | 53.85118 | -1.16605 | 639 ft | 95 kts | 356° |
| 2026-05-05 14:29 | 53.85652 | -1.17276 | 639 ft | 108 kts | 302° |
| 2026-05-05 14:29 | 53.85615 | -1.18516 | 781 ft | 119 kts | 247° |
| 2026-05-05 14:30 | 53.85162 | -1.19725 | 712 ft | 119 kts | 238° |
| 2026-05-05 14:30 | 53.84642 | -1.20821 | 617 ft | 120 kts | 233° |
| 2026-05-05 14:30 | 53.84110 | -1.21787 | 703 ft | 108 kts | 227° |
| 2026-05-05 14:30 | 53.83609 | -1.22709 | 687 ft | 98 kts | 231° |
| 2026-05-05 14:31 | 53.83101 | -1.22787 | 566 ft | 79 kts | 118° |
| 2026-05-05 14:31 | 53.82888 | -1.21951 | 327 ft | 72 kts | 98° |
| 2026-05-05 14:31 | 53.82843 | -1.21188 | 170 ft | 63 kts | 68° |
| 2026-05-05 14:31 | 53.83032 | -1.20545 | 88 ft | 61 kts | 47° |
| 2026-05-05 14:32 | 53.83273 | -1.19966 | 37 ft | 55 kts | 47° |
| 2026-05-05 14:32 | 53.83475 | -1.19488 | 38 ft | 52 kts | 59° |
| 2026-05-05 14:32 | 53.83691 | -1.18998 | 59 ft | 53 kts | 41° |
| 2026-05-05 14:32 | 53.83910 | -1.18478 | 36 ft | 43 kts | 48° |
| 2026-05-05 14:33 | 53.84151 | -1.18071 | 696 ft | 62 kts | 125° |